• Join FlightAware (Why Join?)
  • Login
  • US Flag 
 
06:02PM EST


 

Airport Tracker/Info


-or-


 

Live Flight TrackerFlight Track Log ✈ AAL1214 ✈ 24-Apr-2013 ✈ MMSD / SJD - KDFW

Flight Track Log - Related Links

Times and Time Zones

All times are in EDT time to prevent confusion due to time zone crossing. See the AAL1214 flight status page for this flight to view local times or setup timezone preferences in your user account.

Time Position Orientation Groundspeed Altitude Reporting Facility
EDT Latitude Longitude Course Direction KTS MPH feet Rate Location/Type
09:23AM 23.3852 -110.0140 314° West  Level FlightAware Approximate
09:24AM 23.4744 -110.1077 317° Northwest  Level FlightAware Approximate
09:25AM 23.5758 -110.1794 345° North  Level FlightAware Approximate
09:26AM 23.6953 -110.2152 345° North  Level FlightAware Approximate
09:27AM 23.8149 -110.2511 345° North  Level FlightAware Approximate
09:28AM 23.9349 -110.2852 346° North  Level FlightAware Approximate
09:29AM 24.0553 -110.3167 North  Level FlightAware Approximate
09:30AM 24.1629 -110.2525 31° Northeast  Level FlightAware Approximate
09:31AM 24.2670 -110.1789 34° Northeast  Level FlightAware Approximate
09:32AM 24.3724 -110.1073 31° Northeast  Level FlightAware Approximate
09:33AM 24.4655 -110.0230 31° Northeast  Level FlightAware Approximate
09:34AM 24.5709 -109.9513 34° Northeast  Level FlightAware Approximate
09:35AM 24.6741 -109.8757 34° Northeast  Level FlightAware Approximate
09:36AM 24.7773 -109.8000 34° Northeast  Level FlightAware Approximate
09:37AM 24.8753 -109.7165 39° Northeast  Level FlightAware Approximate
09:38AM 24.9721 -109.6312 38° Northeast  Level FlightAware Approximate
09:39AM 25.0703 -109.5475 38° Northeast  Level FlightAware Approximate
09:40AM 25.1684 -109.4638 38° Northeast  Level FlightAware Approximate
09:41AM 25.2664 -109.3799 38° Northeast  Level FlightAware Approximate
09:42AM 25.3644 -109.2959 38° Northeast  Level FlightAware Approximate
09:43AM 25.4624 -109.2117 38° Northeast  Level FlightAware Approximate
09:44AM 25.5603 -109.1274 38° Northeast  Level FlightAware Approximate
09:45AM 25.6590 -109.0444 29° Northeast  Level FlightAware Approximate
09:46AM 25.7670 -108.9770 29° Northeast  Level FlightAware Approximate
09:47AM 25.8751 -108.9094 29° Northeast  Level FlightAware Approximate
09:48AM 25.9821 -108.8398 31° Northeast  Level FlightAware Approximate
09:49AM 26.0885 -108.7689 31° Northeast  Level FlightAware Approximate
09:50AM 26.1939 -108.6963 34° Northeast  Level FlightAware Approximate
09:51AM 26.2968 -108.6191 34° Northeast  Level FlightAware Approximate
09:52AM 26.3998 -108.5421 34° Northeast  Level FlightAware Approximate
09:53AM 26.5027 -108.4649 34° Northeast  Level FlightAware Approximate
09:54AM 26.6056 -108.3877 34° Northeast  Level FlightAware Approximate
09:55AM 26.7071 -108.3083 47° Northeast  Level FlightAware Approximate
09:56AM 26.7922 -108.2073 47° Northeast  Level FlightAware Approximate
09:57AM 26.8772 -108.1062 47° Northeast  Level FlightAware Approximate
09:58AM 26.9621 -108.0049 47° Northeast  Level FlightAware Approximate
09:59AM 27.0470 -107.9034 47° Northeast  Level FlightAware Approximate
10:00AM 27.1318 -107.8018 47° Northeast  Level FlightAware Approximate
10:01AM 27.2140 -107.6975 48° Northeast  Level FlightAware Approximate
10:02AM 27.2961 -107.5930 49° Northeast  Level FlightAware Approximate
10:03AM 27.3788 -107.4890 48° Northeast  Level FlightAware Approximate
10:04AM 27.4631 -107.3866 47° Northeast  Level FlightAware Approximate
10:05AM 27.5474 -107.2841 47° Northeast  Level FlightAware Approximate
10:06AM 27.6316 -107.1814 47° Northeast  Level FlightAware Approximate
10:07AM 27.7158 -107.0786 47° Northeast  Level FlightAware Approximate
10:08AM 27.7998 -106.9756 47° Northeast  Level FlightAware Approximate
10:09AM 27.8838 -106.8725 47° Northeast  Level FlightAware Approximate
10:10AM 27.9678 -106.7692 47° Northeast  Level FlightAware Approximate
10:11AM 28.0495 -106.6637 49° Northeast  Level FlightAware Approximate
10:12AM 28.1308 -106.5575 49° Northeast  Level FlightAware Approximate
10:13AM 28.2120 -106.4512 49° Northeast  Level FlightAware Approximate
10:14AM 28.2930 -106.3447 49° Northeast  Level FlightAware Approximate
10:15AM 28.3740 -106.2381 49° Northeast  Level FlightAware Approximate
10:16AM 28.4550 -106.1312 49° Northeast  Level FlightAware Approximate
10:17AM 28.5358 -106.0243 49° Northeast  Level FlightAware Approximate
10:18AM 28.6427 -105.9725 North  Level FlightAware Approximate
10:19AM 28.7657 -105.9549 North  Level FlightAware Approximate
10:20AM 28.8584 -105.8727 49° Northeast  Level FlightAware Approximate
10:21AM 28.9392 -105.7653 49° Northeast  Level FlightAware Approximate
10:22AM 29.0200 -105.6578 49° Northeast  Level FlightAware Approximate
10:23AM 29.1007 -105.5501 49° Northeast  Level FlightAware Approximate
10:24AM 29.1812 -105.4422 49° Northeast  Level FlightAware Approximate
10:25AM 29.2618 -105.3342 49° Northeast  Level FlightAware Approximate
10:26AM 29.3422 -105.2260 50° Northeast  Level FlightAware Approximate
10:26AM 29.2392 -105.3769 49° Northeast 483 556 37,000  Level Houston Center
10:27AM 29.4225 -105.1176 50° Northeast  Level FlightAware Approximate
10:27AM 29.3275 -105.2603 49° Northeast 484 557 37,000  Level Houston Center
10:28AM 29.5028 -105.0090 50° Northeast  Level FlightAware Approximate
10:28AM 29.4028 -105.1642 48° Northeast 482 555 37,000  Level Albuquerque Center
10:29AM 29.5829 -104.9003 50° Northeast  Level FlightAware Approximate
10:29AM 29.4897 -105.0461 50° Northeast 485 558 37,000  Level Albuquerque Center
10:30AM 29.6630 -104.7914 50° Northeast  Level FlightAware Approximate
10:30AM 29.5778 -104.9308 49° Northeast 483 556 37,000  Level Albuquerque Center
10:31AM 29.7430 -104.6824 50° Northeast  Level FlightAware Approximate
10:31AM 29.6642 -104.8133 50° Northeast 483 556 37,000  Level Albuquerque Center
10:32AM 29.8237 -104.5739 49° Northeast  Level FlightAware Approximate
10:32AM 29.7697 -104.6725 49° Northeast 485 558 37,000  Level Albuquerque Center
10:33AM 29.8558 -104.5558 50° Northeast 483 556 37,000  Level Albuquerque Center
10:34AM 29.9422 -104.4386 50° Northeast 482 555 37,000  Level Albuquerque Center
10:35AM 30.0297 -104.3228 49° Northeast 481 554 37,000  Level Albuquerque Center
10:36AM 30.1156 -104.2039 50° Northeast 483 556 37,000  Level Albuquerque Center
10:37AM 30.2031 -104.0864 49° Northeast 483 556 37,000  Level Albuquerque Center
10:38AM 30.3078 -103.9422 50° Northeast 487 560 37,000 -60 Level Albuquerque Center
10:39AM 30.3917 -103.8181 52° Northeast 490 564 36,900  Descending Albuquerque Center
10:41AM 30.4706 -103.6978 53° Northeast 483 556 37,000  Climbing Albuquerque Center
10:42AM 30.5544 -103.5731 52° Northeast 486 559 37,000  Level Albuquerque Center
10:43AM 30.6372 -103.4481 52° Northeast 489 563 37,000 -60 Level Albuquerque Center
10:44AM 30.7206 -103.3228 52° Northeast 490 564 36,900  Descending Albuquerque Center
10:45AM 30.8200 -103.1742 52° Northeast 488 562 37,000  Climbing Albuquerque Center
10:46AM 30.9047 -103.0497 52° Northeast 488 562 37,000  Level Albuquerque Center
10:47AM 30.9772 -102.9164 58° Northeast 488 562 37,000  Level Albuquerque Center
10:48AM 31.0378 -102.7722 64° Northeast 494 568 37,000  Level Albuquerque Center
10:49AM 31.0989 -102.6275 64° Northeast 498 573 37,000  Level Albuquerque Center
10:50AM 31.1642 -102.4711 64° Northeast 508 585 37,000  Level Albuquerque Center
10:51AM 31.2253 -102.3253 64° Northeast 505 581 37,000  Level Albuquerque Center
10:52AM 31.2858 -102.1806 64° Northeast 500 575 37,000  Level Albuquerque Center
10:53AM 31.3453 -102.0347 64° Northeast 500 575 37,000  Level Albuquerque Center
10:54AM 31.4094 -101.8797 64° Northeast 498 573 37,000  Level Albuquerque Center
10:55AM 31.4811 -101.7067 64° Northeast 494 568 37,000  Level Albuquerque Center
10:56AM 31.5414 -101.5642 64° Northeast 494 568 37,000  Level Fort Worth Center
10:57AM 31.6006 -101.4181 65° Northeast 494 568 37,000  Level Fort Worth Center
10:58AM 31.6614 -101.2719 64° Northeast 494 568 37,000  Level Fort Worth Center
10:59AM 31.7158 -101.1228 67° East 494 568 37,000  Level Fort Worth Center
11:00AM 31.7767 -100.9764 64° Northeast 494 568 37,000  Level Fort Worth Center
11:01AM 31.8369 -100.8294 64° Northeast 494 568 37,000  Level Fort Worth Center
11:02AM 31.8931 -100.6822 66° East 494 568 37,000  Level Fort Worth Center
11:03AM 31.9511 -100.5400 64° Northeast 494 568 37,000  Level Fort Worth Center
11:04AM 32.0089 -100.3925 65° Northeast 494 568 37,000  Level Fort Worth Center
11:05AM 32.0664 -100.2472 65° Northeast 494 568 37,000  Level Fort Worth Center
11:06AM 32.1239 -100.1019 65° Northeast 494 568 37,000  Level Fort Worth Center
11:07AM 32.1792 -99.9564 66° East 489 563 37,000  Level Fort Worth Center
11:08AM 32.2303 -99.8031 68° East 489 563 37,000 -360 Level Fort Worth Center
11:09AM 32.2292 -99.6358 90° East 489 563 36,300 -840 Descending Fort Worth Center
11:10AM 32.2236 -99.4714 92° East 489 563 35,400 -1,080 Descending Fort Worth Center
11:11AM 32.2328 -99.2872 87° East 505 581 34,200 -1,140 Descending Fort Worth Center
11:12AM 32.2433 -99.1206 86° East 505 581 33,200 -1,740 Descending Fort Worth Center
11:13AM 32.2581 -98.9536 84° East 505 581 30,800 -2,460 Descending Fort Worth Center
11:14AM 32.2683 -98.7869 86° East 510 587 28,300 -2,400 Descending Fort Worth Center
11:15AM 32.2783 -98.6272 86° East 498 573 26,000 -2,400 Descending Fort Worth Center
11:16AM 32.2903 -98.4678 85° East 493 567 23,500 -2,520 Descending Fort Worth Center
11:17AM 32.2997 -98.3131 86° East 472 543 21,000 -2,400 Descending Fort Worth Center
11:18AM 32.3069 -98.1878 86° East 448 516 18,700 -2,340 Descending Fort Worth Center
11:19AM 32.3161 -98.0403 86° East 415 478 16,400 -1,980 Descending Fort Worth Center
11:20AM 32.3231 -97.9222 86° East 397 457 14,800 -1,920 Descending Fort Worth Center
11:21AM 32.3317 -97.7872 86° East 383 441 12,600 -1,920 Descending Fort Worth Center
11:22AM 32.3383 -97.6814 86° East 364 419 11,000 -840 Descending Fort Worth Center
11:23AM 32.3989 -97.5906 52° Northeast 305 351 11,000 -60 Level Fort Worth Center
11:24AM 32.4533 -97.5267 45° Northeast 305 351 10,900 -960 Descending Fort Worth Center
11:25AM 32.5097 -97.4381 53° Northeast 305 351 9,100 -1,620 Descending Fort Worth Center
11:26AM 32.5369 -97.3567 68° East 292 336 7,700 -1,380 Descending Fort Worth Center
11:27AM 32.5722 -97.2606 66° East 286 329 6,400 -1,080 Descending Fort Worth Center
11:28AM 32.5994 -97.1889 66° East 273 314 5,600 -960 Descending Fort Worth Center
11:29AM 32.6283 -97.1000 69° East 267 307 4,500 -960 Descending Fort Worth Center
11:30AM 32.6667 -97.0667 36° Northeast 203 234 3,900 -660 Descending Dallas / Fort Worth TRACON
11:31AM 32.7167 -97.0500 16° North 151 174 3,300 -600 Descending Dallas / Fort Worth TRACON